Main page
METAR-TAF:

METAR-TAF

Airports :

Faro, Portugal

Faro Airport

latitude: 37-01N, longitude: 007-58W, elevation: 7 m

Current weather observation

The report was made 21 minutes ago, at 08:30 UTC
Wind 4 kt from the South, varying between Southeast and West/Southwest
Temperature 24°C
Humidity 50%
Pressure 1014 hPa
Visibility 10 km or more
no clouds below 1500 m and no cumulonimbus

METAR: LPFR 260830Z 19004KT 130V240 CAVOK 24/13 Q1014

Time: 09:51 (08:51 UTC)


TAF: missing

Weather observations and forecasts of more than 4000 airports (METAR and TAF reports).

The available stations are represented by yellow and red dots on the map.

Hover mouse over dot to see the name of the station.

Then click to see weather observations and forecasts.

To change the map : click on the green buttons with a black cross to zoom in, on the green button with a dash to zoom out, or on the green arrows for adjacent maps.


METAR-TAF: